Edinburgh Airport, United Kingdom

1:02 AM GMT on February 14, 2016 (GMT +0000)
Edinburgh Airport | | Change Station
CLOSE
Current Station
Airport
Location: Edinburgh Airport,
Elevation: 135 ft
Nearby Weather Stations

Elev 135 ft 55.95 °N, 3.35 °W | Updated 12 minutes ago

Mostly Cloudy
Mostly Cloudy
34 °F
Feels Like 30 °F
N
5
Wind Variable Wind from NNE

Today
High -- | Low -- °F
--% Chance of Precip.
Yesterday
High -- | Low -- °F
Precip. -- in
Pressure 29.42 in
Visibility 6.2 miles
Clouds Few 2800 ft
Mostly Cloudy 3600 ft
Windchill 30 °F
Dew Point 30 °F
Humidity 87%
Rainfall 0.00 in
Snow Depth Not available.
7:42 AM 5:13 PM
Waxing Crescent, 36% visible
METAR EGPH 140050Z AUTO 03004KT 9999 FEW028 BKN036 01/M01 Q0996
Pressure 29.42 in
Visibility 6.2 miles
Clouds Few 2800 ft
Mostly Cloudy 3600 ft
Windchill 30 °F
Dew Point 30 °F
Humidity 87%
Rainfall 0.00 in
Snow Depth Not available.
7:42 AM 5:13 PM
Waxing Crescent, 36% visible
METAR EGPH 140050Z AUTO 03004KT 9999 FEW028 BKN036 01/M01 Q0996

10-Day Weather Forecast

Almanac

Astronomy

Feb. 14, 2016 Rise Set
Actual Time
Civil Twilight
Nautical Twilight
Astronomical Twilight
Moon
Length of Visible Light
Length of Day
Tomorrow will be .
, % of the Moon is Illuminated

Today's Extremes

Country Highs Country Lows

Community

WunderPhotos

Upload Photos

1,892,720 photos uploaded!

WunderBlog® & News

Nearby

Air Quality

  Air Quality AQ Index Pollutant
Not available.

Snow Depth

Station Depth Elevation

Earthquake Activity

City Distance Mag. Time & Date
Minimum magnitude displayed is 2.5.

Coastal Water Temperatures

Place Temperature

Stations

Nearby Weather Stations

Station Location Temp. Windchill Dew Point Humidity Wind Precip. Elev Updated Type